Date,TemperatureHighF,TemperatureAvgF,TemperatureLowF,DewpointHighF,DewpointAvgF,DewpointLowF,HumidityHigh,HumidityAvg,HumidityLow,PressureMaxIn,PressureMinIn,WindSpeedMaxMPH,WindSpeedAvgMPH,GustSpeedMaxMPH,PrecipitationSumIn
2013-2-1,51.0,40.8,36.0,40.0,36.7,33.0,100,86,64,0.00,40.00,14,7,21,0.00
2013-2-2,45.0,37.8,32.0,38.0,35.8,32.0,100,93,73,0.00,40.00,9,5,17,0.00
2013-2-3,46.0,38.7,34.0,37.0,35.1,34.0,100,87,65,0.00,40.00,17,8,29,0.00
2013-2-4,48.0,39.2,34.0,37.0,34.4,33.0,100,84,65,0.00,40.00,10,4,17,0.00
2013-2-5,44.0,37.2,34.0,40.0,36.1,34.0,100,96,73,0.00,40.00,14,7,24,0.19
2013-2-6,42.0,35.8,33.0,40.0,35.6,33.0,100,99,93,0.00,40.00,14,7,25,0.24
2013-2-7,40.0,33.6,30.0,35.0,30.9,28.0,100,90,63,0.00,40.00,11,6,18,0.04
2013-2-8,43.0,32.9,28.0,29.0,26.4,23.0,96,79,48,0.00,40.00,14,6,23,0.00
2013-2-9,39.0,32.9,29.0,33.0,30.6,27.0,100,92,78,0.00,40.00,13,10,24,0.00
2013-2-10,44.0,36.1,31.0,35.0,32.0,30.0,100,86,63,0.00,40.00,13,7,21,0.00
2013-2-11,41.0,35.2,31.0,36.0,32.5,29.0,98,90,76,0.00,40.00,18,14,32,0.00
2013-2-12,45.0,39.1,36.0,40.0,37.8,36.0,100,96,81,0.00,40.00,16,13,28,0.00
2013-2-13,45.0,40.6,36.0,40.0,37.6,33.0,100,90,70,0.00,40.00,16,12,29,0.00
2013-2-14,48.0,40.3,36.0,41.0,37.2,34.0,100,89,74,0.00,40.00,15,8,23,0.00
2013-2-15,48.0,39.0,35.0,42.0,38.0,35.0,100,96,77,0.00,40.00,6,3,8,0.00
2013-2-16,44.0,37.7,33.0,39.0,36.4,32.0,100,95,81,0.00,40.00,16,8,27,0.05
2013-2-17,38.0,32.7,30.0,33.0,27.0,24.0,100,80,65,0.00,40.00,17,9,29,0.01
2013-2-18,40.0,32.1,28.0,30.0,27.7,25.0,96,84,67,0.00,40.00,10,4,18,0.00
2013-2-19,43.0,34.6,28.0,32.0,28.7,24.0,100,81,51,0.00,40.00,9,4,14,0.00
2013-2-20,39.0,33.7,31.0,33.0,30.5,29.0,100,89,70,0.00,40.00,11,8,22,0.01
2013-2-21,36.0,32.1,31.0,36.0,32.1,31.0,100,100,97,0.00,40.00,15,11,25,0.03
2013-2-22,37.0,33.8,30.0,37.0,33.8,30.0,100,100,100,0.00,40.00,20,12,32,0.60
2013-2-23,35.0,31.1,28.0,35.0,30.8,28.0,100,99,89,0.00,40.00,14,11,31,0.19
2013-2-24,44.0,33.8,29.0,33.0,30.4,28.0,100,88,62,0.00,40.00,14,7,24,0.02
2013-2-25,37.0,32.3,29.0,36.0,32.1,29.0,100,100,80,0.00,40.00,17,10,32,0.58
2013-2-26,43.0,33.0,28.0,35.0,31.2,28.0,100,93,72,0.00,40.00,12,6,21,0.04
2013-2-27,45.0,38.3,33.0,39.0,34.8,29.0,100,87,74,0.00,40.00,10,6,24,0.00
2013-2-28,49.0,41.9,37.0,49.0,41.9,37.0,100,100,99,0.00,40.00,16,6,26,0.70